ADDS METAR Data INFO
IDs: Format: Raw Decoded Include TAF

Data at: 0732 UTC 21 Jul 2018

PAHY 210656Z AUTO 00000KT 10SM CLR 13/11 A3023 RMK AO2 SLP335 T01330111 PNO $
PAHY 210556Z AUTO 32004KT 10SM CLR 14/11 A3023 RMK AO2 SLP336 6//// T01440111 10189 20144 53011 PNO $
PAHY 210456Z AUTO 33004KT 10SM CLR 16/12 A3021 RMK AO2 SLP329 T01560117 PNO $
PAHY 210356Z AUTO 24005KT 10SM CLR 17/11 A3018 RMK AO2 SLP320 T01670111 PNO $
PAHY 210256Z AUTO 20005KT 10SM CLR 18/11 A3019 RMK AO2 SLP324 6//// T01780111 51008 PNO $
PAHY 210056Z AUTO 21007KT 10SM CLR 18/12 A3022 RMK AO2 PRESRR SLP333 T01830117 PNO $
PAHY 202356Z AUTO 23007KT 10SM CLR 19/11 A3017 RMK AO2 SLP316 6//// T01890111 10194 20150 55014 PNO $
PAHY 202256Z AUTO 24008KT 10SM CLR 19/11 A3016 RMK AO2 SLP314 T01890111 PNO $
PAHY 202156Z AUTO 31010KT 10SM CLR 18/11 A3017 RMK AO2 SLP316 T01830111 PNO $
PAHY 202056Z AUTO 30009KT 10SM CLR 18/11 A3021 RMK AO2 PRESRR SLP330 6//// T01830111 55002 PNO $
PAHY 201956Z AUTO 30005KT 10SM FEW033 17/11 A3020 RMK AO2 SLP327 T01720111 PNO $
PAHY 201856Z AUTO 25003KT 10SM CLR 16/11 A3021 RMK AO2 SLP331 T01610106 PNO $
PAHY 201756Z AUTO 00000KT 10SM FEW024 15/11 A3022 RMK AO2 SLP332 6//// T01500106 10150 20100 58006 PNO $
PAHY 201744Z AUTO 00000KT 10SM FEW022 14/11 A3022 RMK AO2 PNO $
PAHY 201703Z AUTO 29004KT 10SM BKN020 14/11 A3022 RMK AO2 PNO $
PAHY 201656Z AUTO 31004KT 10SM SCT020 14/11 A3022 RMK AO2 SLP334 T01390106 PNO $
PAHY 201556Z AUTO 29005KT 10SM FEW017 13/10 A3024 RMK AO2 SLP338 T01280100 PNO $
PAHY 201554Z AUTO 28005KT 10SM SCT017 12/10 A3024 RMK AO2 PNO $
PAHY 201456Z AUTO 00000KT 10SM BKN017 11/10 A3024 RMK AO2 SLP338 6//// T01110100 53002 PNO $
PAHY 201404Z AUTO 00000KT 10SM BKN017 11/10 A3023 RMK AO2 PNO $
PAHY 201356Z AUTO 00000KT 10SM SCT019 11/10 A3023 RMK AO2 SLP337 T01060100 PNO $
PAHY 201256Z AUTO 00000KT 10SM FEW015 10/09 A3022 RMK AO2 SLP334 T01000094 PNO $
PAHY 201156Z AUTO 00000KT 10SM SCT019 10/09 A3023 RMK AO2 SLP336 6//// 7//// T01000094 10139 20100 54000 PNO $
PAHY 201123Z AUTO 00000KT 10SM BKN019 11/10 A3023 RMK AO2 PNO $
PAHY 201056Z AUTO 00000KT 10SM FEW022 11/10 A3023 RMK AO2 SLP336 T01110100 PNO $
PAHY 201052Z AUTO 00000KT 10SM SCT022 11/09 A3023 RMK AO2 PNO $
PAHY 201034Z AUTO 00000KT 10SM BKN022 11/10 A3023 RMK AO2 PNO $
PAHY 200956Z AUTO 00000KT 10SM FEW014 12/10 A3023 RMK AO2 SLP336 T01170100 PNO $
PAHY 200930Z AUTO 00000KT 10SM FEW014 SCT021 12/11 A3023 RMK AO2 PNO $
PAHY 200856Z AUTO 00000KT 10SM OVC021 12/11 A3023 RMK AO2 SLP336 6//// T01220106 50002 PNO $
PAHY 200756Z AUTO 16003KT 10SM OVC023 12/11 A3023 RMK AO2 SLP336 T01220106 401720111 PNO $
PAHY 200740Z AUTO 00000KT 10SM BKN021 12/11 A3023 RMK AO2 PNO $
PAHY 200656Z AUTO 00000KT 10SM SCT023 13/11 A3023 RMK AO2 SLP335 T01280106 PNO $
PAHY 200616Z AUTO 32003KT 10SM BKN023 13/11 A3023 RMK AO2 PNO $
PAHY 200556Z AUTO 30006KT 10SM SCT019 14/11 A3022 RMK AO2 SLP334 6//// T01390106 10172 20133 52009 PNO $
PAHY 200525Z AUTO 30005KT 10SM BKN021 14/11 A3022 RMK AO2 PNO $
PAHY 200456Z AUTO 28009KT 10SM FEW023 14/11 A3022 RMK AO2 SLP331 T01440106 PNO $
PAHY 200356Z AUTO 31008KT 10SM BKN025 BKN039 15/11 A3021 RMK AO2 SLP328 T01500106 PNO $
PAHY 200323Z AUTO 32008KT 10SM BKN027 OVC039 15/11 A3020 RMK AO2 PNO $
PAHY 200256Z AUTO 31012KT 10SM BKN031 OVC039 16/11 A3020 RMK AO2 SLP325 6//// T01560106 55001 PNO $
PAHY 200156Z AUTO 31009KT 10SM OVC033 16/10 A3019 RMK AO2 SLP324 T01610100 PNO $
PAHY 200056Z AUTO 32009KT 10SM CLR 17/09 A3019 RMK AO2 SLP324 T01670094 PNO $
PAHY 192356Z AUTO 31012KT 10SM FEW047 BKN070 17/09 A3020 RMK AO2 SLP326 6//// T01720094 10172 20139 53000 PNO $
PAHY 192256Z AUTO 32010KT 10SM SCT040 OVC060 17/09 A3020 RMK AO2 SLP326 T01670094 PNO $
PAHY 192156Z AUTO 32007KT 10SM OVC055 17/10 A3020 RMK AO2 SLP325 T01670100 PNO $
PAHY 192056Z AUTO 32008KT 10SM OVC050 16/10 A3020 RMK AO2 SLP325 6//// T01610100 55002 PNO $